createdAt,value
2023-01-11T00:02:29.701Z,43.10
2023-01-11T00:05:58.757Z,44.50
2023-01-11T00:09:26.082Z,43.40
2023-01-11T00:12:53.269Z,48.10
2023-01-11T00:16:20.158Z,41.30
2023-01-11T00:19:47.329Z,45.30
2023-01-11T00:23:14.606Z,45.10
2023-01-11T00:26:41.597Z,45.40
2023-01-11T00:30:10.440Z,47.80
2023-01-11T00:33:37.375Z,43.80
2023-01-11T00:37:04.579Z,43.00
2023-01-11T00:40:31.474Z,46.70
2023-01-11T00:44:15.966Z,46.80
2023-01-11T00:47:58.291Z,35.50
2023-01-11T00:51:25.888Z,37.40
2023-01-11T00:54:52.975Z,40.40
2023-01-11T00:58:20.007Z,43.30
2023-01-11T01:01:47.115Z,46.50
2023-01-11T01:05:14.696Z,47.20
2023-01-11T01:08:41.692Z,35.80
2023-01-11T01:12:10.245Z,40.10
2023-01-11T01:15:37.326Z,40.50
2023-01-11T01:19:05.025Z,38.60
2023-01-11T01:22:32.158Z,35.90
2023-01-11T01:25:59.063Z,39.70
2023-01-11T01:29:26.880Z,45.00
2023-01-11T01:32:53.793Z,42.40
2023-01-11T01:36:20.801Z,36.40
2023-01-11T01:39:47.839Z,37.40
2023-01-11T01:43:16.471Z,32.50
2023-01-11T01:46:43.330Z,38.30
2023-01-11T01:50:15.603Z,33.90
2023-01-11T01:53:46.707Z,41.50
2023-01-11T01:57:20.388Z,38.10
2023-01-11T02:00:48.565Z,35.30
2023-01-11T02:04:20.685Z,34.50
2023-01-11T02:07:49.147Z,33.00
2023-01-11T02:11:31.052Z,44.10
2023-01-11T02:15:00.716Z,36.10
2023-01-11T02:18:27.843Z,34.80
2023-01-11T02:22:14.815Z,35.50
2023-01-11T02:26:12.914Z,31.90
2023-01-11T02:29:53.743Z,35.30
2023-01-11T02:33:26.797Z,29.60
2023-01-11T02:37:10.023Z,32.20
2023-01-11T02:40:49.108Z,32.00
2023-01-11T02:44:38.886Z,37.60
2023-01-11T02:48:15.908Z,28.00
2023-01-11T02:51:48.300Z,37.80
2023-01-11T02:55:17.909Z,30.70
2023-01-11T02:58:48.151Z,33.90
2023-01-11T03:02:17.002Z,37.20
2023-01-11T03:05:53.294Z,29.20
2023-01-11T03:09:29.725Z,31.60
2023-01-11T03:13:07.720Z,31.90
2023-01-11T03:16:45.043Z,32.20
2023-01-11T03:20:19.493Z,29.60
2023-01-11T03:23:56.647Z,28.60
2023-01-11T03:27:33.125Z,35.60
2023-01-11T03:31:07.072Z,29.00
2023-01-11T03:34:36.973Z,33.50
2023-01-11T03:38:07.379Z,31.50
2023-01-11T03:41:38.566Z,33.30
2023-01-11T03:45:07.176Z,31.00
2023-01-11T03:48:40.315Z,35.50
2023-01-11T03:52:10.234Z,29.50
2023-01-11T03:55:42.914Z,29.30
2023-01-11T03:59:10.074Z,31.80
2023-01-11T04:02:41.200Z,31.60
2023-01-11T04:06:11.122Z,35.20
2023-01-11T04:09:38.333Z,39.30
2023-01-11T04:13:05.871Z,35.60
2023-01-11T04:16:32.860Z,37.20
2023-01-11T04:20:00.241Z,39.70
2023-01-11T04:23:27.287Z,35.40
2023-01-11T04:26:54.355Z,37.50
2023-01-11T04:30:21.932Z,45.20
2023-01-11T04:33:48.902Z,38.90
2023-01-11T04:37:15.765Z,39.10
2023-01-11T04:40:42.665Z,35.40
2023-01-11T04:44:09.984Z,35.50
2023-01-11T04:47:37.032Z,40.10
2023-01-11T04:51:04.038Z,42.90
2023-01-11T04:54:30.857Z,46.00
2023-01-11T04:57:58.058Z,51.40
2023-01-11T05:01:25.069Z,40.90
2023-01-11T05:04:51.968Z,47.20
2023-01-11T05:08:18.899Z,37.70
2023-01-11T05:11:46.169Z,49.80
2023-01-11T05:15:14.096Z,42.60
2023-01-11T05:18:42.444Z,47.20
2023-01-11T05:22:10.129Z,46.60
2023-01-11T05:25:36.995Z,45.40
2023-01-11T05:29:06.551Z,43.40
2023-01-11T05:36:03.123Z,47.10
2023-01-11T05:39:30.024Z,42.30
2023-01-11T05:42:56.938Z,47.00
2023-01-11T05:46:24.512Z,51.00
2023-01-11T05:49:51.403Z,49.90
2023-01-11T05:53:18.436Z,45.30
2023-01-11T05:56:45.459Z,50.40
2023-01-11T06:00:14.931Z,48.30
2023-01-11T06:03:42.107Z,46.80
2023-01-11T06:07:09.994Z,45.50
2023-01-11T06:10:36.998Z,43.00
2023-01-11T06:14:04.322Z,39.20
2023-01-11T06:17:31.176Z,36.80
2023-01-11T06:20:58.549Z,35.20
2023-01-11T06:24:26.064Z,38.00
2023-01-11T06:27:53.873Z,41.10
2023-01-11T06:31:21.197Z,34.90
2023-01-11T06:34:48.701Z,37.90
2023-01-11T06:38:19.007Z,34.30
2023-01-11T06:41:46.084Z,37.40
2023-01-11T06:45:14.611Z,34.40
2023-01-11T06:48:41.684Z,32.40
2023-01-11T06:52:08.679Z,34.80
2023-01-11T06:55:35.947Z,33.90
2023-01-11T06:59:02.808Z,39.20
2023-01-11T07:02:30.055Z,34.00
2023-01-11T07:05:58.217Z,31.30
2023-01-11T07:09:25.312Z,32.60
2023-01-11T07:12:53.493Z,28.80
2023-01-11T07:16:20.417Z,27.70
2023-01-11T07:19:47.737Z,27.50
2023-01-11T07:23:14.695Z,27.90
2023-01-11T07:26:43.483Z,28.60
2023-01-11T07:30:12.601Z,26.30
2023-01-11T07:33:39.451Z,25.40
2023-01-11T07:37:06.589Z,29.20
2023-01-11T07:40:36.376Z,26.00
2023-01-11T07:44:03.216Z,24.50
2023-01-11T07:47:30.483Z,28.40
2023-01-11T07:50:57.498Z,32.40
2023-01-11T07:54:25.174Z,29.60
2023-01-11T07:57:52.160Z,69.20
2023-01-11T08:01:19.371Z,27.00
2023-01-11T08:04:46.465Z,24.00
2023-01-11T08:08:13.548Z,24.10
2023-01-11T08:11:58.445Z,22.40
2023-01-11T08:15:25.500Z,25.80
2023-01-11T08:18:52.570Z,22.90
2023-01-11T08:22:19.543Z,23.70
2023-01-11T08:25:46.597Z,23.90
2023-01-11T08:29:13.560Z,21.30
2023-01-11T08:32:40.700Z,26.40
2023-01-11T08:36:10.931Z,23.10
2023-01-11T08:39:37.822Z,28.90
2023-01-11T08:43:04.736Z,27.90
2023-01-11T08:46:34.140Z,24.50
2023-01-11T08:50:01.228Z,24.10
2023-01-11T08:53:28.545Z,26.00
2023-01-11T08:56:56.047Z,23.90
2023-01-11T09:00:24.255Z,20.20
2023-01-11T09:03:51.146Z,28.60
2023-01-11T09:07:18.051Z,27.00
2023-01-11T09:10:45.087Z,23.30
2023-01-11T09:14:12.145Z,19.40
2023-01-11T09:17:39.132Z,20.40
2023-01-11T09:21:06.391Z,21.50
2023-01-11T09:24:33.759Z,19.30
2023-01-11T09:28:01.259Z,17.90
2023-01-11T09:31:28.242Z,23.60
2023-01-11T09:34:58.150Z,21.10
2023-01-11T09:38:29.611Z,20.10
2023-01-11T09:42:17.997Z,16.10
2023-01-11T09:45:46.992Z,22.30
2023-01-11T09:49:20.328Z,21.60
2023-01-11T09:52:52.738Z,30.30
2023-01-11T09:56:27.863Z,19.40
2023-01-11T10:00:05.031Z,16.90
2023-01-11T10:03:48.915Z,18.10
2023-01-11T10:07:42.929Z,16.30
2023-01-11T10:18:29.453Z,13.50
2023-01-11T10:23:08.657Z,18.20
2023-01-11T10:26:41.465Z,15.30
2023-01-11T10:30:41.833Z,22.60
2023-01-11T10:34:37.024Z,15.60
2023-01-11T10:38:30.711Z,17.20
2023-01-11T10:42:09.609Z,17.40
2023-01-11T10:45:43.496Z,17.10
2023-01-11T10:49:32.979Z,21.20
2023-01-11T10:53:07.567Z,20.40
2023-01-11T10:57:02.536Z,20.10
2023-01-11T11:00:40.341Z,12.40
2023-01-11T11:04:21.904Z,15.00
2023-01-11T11:07:53.956Z,16.70
2023-01-11T11:11:27.955Z,13.90
2023-01-11T11:15:02.108Z,13.50
2023-01-11T11:18:29.706Z,19.00
2023-01-11T11:21:56.735Z,17.60
2023-01-11T11:25:29.599Z,15.80
2023-01-11T11:29:06.460Z,11.90
2023-01-11T11:32:37.352Z,16.10
2023-01-11T11:36:07.388Z,20.80
2023-01-11T11:39:34.741Z,17.50
2023-01-11T11:43:21.857Z,19.00
2023-01-11T11:47:01.088Z,14.40
2023-01-11T11:50:44.130Z,12.80
2023-01-11T11:54:23.275Z,14.50
2023-01-11T11:57:50.373Z,12.80
2023-01-11T12:01:30.894Z,11.80
2023-01-11T12:04:59.700Z,11.90
2023-01-11T12:08:28.669Z,15.20
2023-01-11T12:11:55.850Z,11.70
2023-01-11T12:15:27.295Z,13.20
2023-01-11T12:18:54.305Z,14.30
2023-01-11T12:22:22.849Z,13.90
2023-01-11T12:26:13.908Z,10.30
2023-01-11T12:30:13.434Z,17.40
2023-01-11T12:33:46.958Z,12.50
2023-01-11T12:37:25.631Z,12.60
2023-01-11T12:41:08.614Z,12.10
2023-01-11T12:44:52.550Z,11.80
2023-01-11T12:48:37.573Z,13.20
2023-01-11T12:52:29.245Z,18.50
2023-01-11T12:56:11.725Z,19.00
2023-01-11T12:59:56.476Z,26.60
2023-01-11T13:03:51.672Z,16.50
2023-01-11T13:07:34.687Z,22.60
2023-01-11T13:11:12.299Z,21.40
2023-01-11T13:14:54.128Z,19.20
2023-01-11T13:18:29.901Z,21.20
2023-01-11T13:21:59.213Z,15.50
2023-01-11T13:25:30.179Z,18.20
2023-01-11T13:29:02.622Z,15.90
2023-01-11T13:32:32.730Z,17.90
2023-01-11T13:36:15.080Z,20.80
2023-01-11T13:39:53.043Z,22.40
2023-01-11T13:43:28.288Z,27.40
2023-01-11T13:47:05.978Z,24.10
2023-01-11T13:50:39.490Z,19.50
2023-01-11T13:54:12.640Z,21.00
2023-01-11T13:57:48.078Z,21.60
2023-01-11T14:01:18.605Z,22.70
2023-01-11T14:04:52.456Z,25.40
2023-01-11T14:08:31.301Z,24.40
2023-01-11T14:12:06.622Z,24.10
2023-01-11T14:15:39.183Z,26.20
2023-01-11T14:19:13.788Z,23.40
2023-01-11T14:22:49.446Z,21.20
2023-01-11T14:26:44.321Z,19.70
2023-01-11T14:30:24.082Z,20.70
2023-01-11T14:38:13.858Z,26.70
2023-01-11T14:42:31.208Z,19.00
2023-01-11T14:46:17.061Z,21.80
2023-01-11T14:49:59.585Z,20.30
2023-01-11T14:53:31.858Z,23.30
2023-01-11T14:56:59.477Z,21.20
2023-01-11T15:01:00.625Z,30.30
2023-01-11T15:04:27.848Z,27.80
2023-01-11T15:08:08.830Z,31.90
2023-01-11T15:11:39.040Z,30.70
2023-01-11T15:15:15.587Z,31.20
2023-01-11T15:18:48.408Z,28.80
2023-01-11T15:22:27.432Z,30.30
2023-01-11T15:26:03.677Z,28.30
2023-01-11T15:29:32.860Z,42.80
2023-01-11T15:33:45.696Z,32.70
2023-01-11T15:37:43.030Z,30.40
2023-01-11T15:41:38.164Z,28.10
2023-01-11T15:46:03.214Z,30.50
2023-01-11T15:49:59.749Z,27.40
2023-01-11T15:53:53.418Z,28.50
2023-01-11T15:58:00.233Z,22.70
2023-01-11T16:01:29.483Z,31.20
2023-01-11T16:05:01.632Z,27.20
2023-01-11T16:08:36.837Z,28.20
2023-01-11T16:12:22.461Z,27.20
2023-01-11T16:16:02.908Z,24.10
2023-01-11T16:19:33.502Z,26.10
2023-01-11T16:23:03.967Z,22.50
2023-01-11T16:26:31.056Z,26.80
2023-01-11T16:29:58.679Z,26.60
2023-01-11T16:33:27.428Z,28.10
2023-01-11T16:36:54.347Z,25.20
2023-01-11T16:40:27.087Z,27.00
2023-01-11T16:44:00.155Z,20.50
2023-01-11T16:47:27.214Z,19.10
2023-01-11T16:51:03.767Z,24.20
2023-01-11T16:54:34.282Z,23.10
2023-01-11T16:58:04.026Z,22.00
2023-01-11T17:04:56.555Z,15.60
2023-01-11T17:08:32.428Z,16.50
2023-01-11T17:11:59.492Z,18.90
2023-01-11T17:15:35.182Z,18.90
2023-01-11T17:19:08.119Z,18.10
2023-01-11T17:22:38.011Z,16.60
2023-01-11T17:29:33.532Z,18.70
2023-01-11T17:33:03.088Z,24.00
2023-01-11T17:36:30.689Z,19.30
2023-01-11T17:39:59.026Z,20.30
2023-01-11T17:43:45.219Z,17.90
2023-01-11T17:47:14.348Z,16.90
2023-01-11T17:50:48.695Z,19.40
2023-01-11T17:54:23.378Z,19.70
2023-01-11T17:58:14.109Z,24.40
2023-01-11T18:01:46.126Z,23.40
2023-01-11T18:05:19.310Z,21.00
2023-01-11T18:08:51.624Z,21.90
2023-01-11T18:12:22.541Z,20.30
2023-01-11T18:15:50.006Z,23.70
2023-01-11T18:19:32.689Z,23.40
2023-01-11T18:23:05.263Z,21.60
2023-01-11T18:26:33.542Z,22.50
2023-01-11T18:30:06.314Z,23.40
2023-01-11T18:33:35.277Z,28.90
2023-01-11T18:37:03.354Z,27.90
2023-01-11T18:40:30.962Z,24.60
2023-01-11T18:43:58.375Z,31.20
2023-01-11T18:47:28.518Z,31.60
2023-01-11T18:50:56.115Z,27.00
2023-01-11T18:54:23.011Z,31.90
2023-01-11T18:57:50.447Z,35.50
2023-01-11T19:01:18.085Z,32.50
2023-01-11T19:04:45.573Z,30.80
2023-01-11T19:08:12.567Z,34.20
2023-01-11T19:11:39.443Z,32.10
2023-01-11T19:15:07.246Z,34.40
2023-01-11T19:18:35.361Z,40.30
2023-01-11T19:22:02.612Z,32.00
2023-01-11T19:25:30.200Z,31.10
2023-01-11T19:28:57.290Z,39.30
2023-01-11T19:32:28.692Z,55.20
2023-01-11T19:35:56.286Z,44.40
2023-01-11T19:39:23.436Z,38.20
2023-01-11T19:42:52.446Z,40.90
2023-01-11T19:46:31.048Z,38.60
2023-01-11T19:50:01.100Z,36.90
2023-01-11T19:53:29.976Z,39.50
2023-01-11T19:56:56.887Z,37.20
2023-01-11T20:00:24.418Z,55.80
2023-01-11T20:03:51.941Z,46.30
2023-01-11T20:07:19.765Z,42.20
2023-01-11T20:10:47.622Z,39.40
2023-01-11T20:14:15.209Z,34.50
2023-01-11T20:17:42.291Z,32.20
2023-01-11T20:21:10.757Z,35.30
2023-01-11T20:24:37.769Z,38.20
2023-01-11T20:28:05.300Z,38.20
2023-01-11T20:31:35.461Z,40.20
2023-01-11T20:35:03.146Z,37.00
2023-01-11T20:38:31.135Z,42.00
2023-01-11T20:41:58.196Z,36.50
2023-01-11T20:45:30.595Z,34.30
2023-01-11T20:48:58.080Z,35.00
2023-01-11T20:52:25.271Z,42.30
2023-01-11T20:55:52.794Z,32.40
2023-01-11T20:59:21.318Z,33.60
2023-01-11T21:02:51.370Z,31.70
2023-01-11T21:06:18.970Z,37.30
2023-01-11T21:09:46.841Z,41.90
2023-01-11T21:13:14.357Z,46.40
2023-01-11T21:16:44.277Z,55.20
2023-01-11T21:20:13.903Z,43.70
2023-01-11T21:23:41.255Z,48.90
2023-01-11T21:27:08.870Z,59.70
2023-01-11T21:30:36.495Z,46.10
2023-01-11T21:34:04.541Z,38.30
2023-01-11T21:37:34.559Z,42.10
2023-01-11T21:41:08.539Z,42.80
2023-01-11T21:44:36.337Z,42.00
2023-01-11T21:48:03.862Z,59.20
2023-01-11T21:51:31.375Z,53.10
2023-01-11T21:54:58.454Z,49.60
2023-01-11T21:58:25.657Z,38.70
2023-01-11T22:01:52.716Z,36.70
2023-01-11T22:05:19.803Z,35.40
2023-01-11T22:08:47.385Z,29.60
2023-01-11T22:12:14.296Z,27.30
2023-01-11T22:15:41.549Z,28.00
2023-01-11T22:19:09.377Z,39.50
2023-01-11T22:22:36.529Z,29.90
2023-01-11T22:26:07.496Z,25.00
2023-01-11T22:29:34.331Z,28.60
2023-01-11T22:33:02.134Z,31.50
2023-01-11T22:36:30.407Z,30.80
2023-01-11T22:40:00.765Z,40.70
2023-01-11T22:43:28.608Z,35.70
2023-01-11T22:46:55.567Z,31.20
2023-01-11T22:50:22.623Z,31.00
2023-01-11T22:53:50.806Z,30.90
2023-01-11T22:57:17.813Z,31.90
2023-01-11T23:00:44.879Z,32.60
2023-01-11T23:04:15.110Z,31.60
2023-01-11T23:07:44.334Z,35.30
2023-01-11T23:11:15.017Z,34.00
2023-01-11T23:14:41.897Z,30.80
2023-01-11T23:18:09.137Z,28.40
2023-01-11T23:21:36.903Z,27.20
2023-01-11T23:25:04.212Z,25.80
2023-01-11T23:28:33.059Z,26.10
2023-01-11T23:32:00.467Z,24.90
2023-01-11T23:35:27.474Z,30.00
2023-01-11T23:38:54.319Z,33.80
2023-01-11T23:42:27.236Z,35.70
2023-01-11T23:46:14.449Z,33.70
2023-01-11T23:49:43.233Z,25.80
2023-01-11T23:53:10.397Z,26.30
2023-01-11T23:56:37.951Z,28.40
